createdAt,value
2018-04-14T00:00:05.112Z,0.00
2018-04-14T00:01:05.130Z,0.00
2018-04-14T00:02:05.163Z,0.00
2018-04-14T00:03:05.193Z,0.00
2018-04-14T00:04:05.251Z,0.00
2018-04-14T00:05:05.557Z,0.00
2018-04-14T00:06:05.324Z,0.00
2018-04-14T00:07:05.318Z,0.00
2018-04-14T00:08:05.407Z,0.00
2018-04-14T00:09:05.379Z,0.00
2018-04-14T00:10:05.410Z,0.00
2018-04-14T00:11:05.443Z,0.00
2018-04-14T00:12:05.730Z,0.00
2018-04-14T00:13:05.504Z,0.00
2018-04-14T00:14:05.540Z,0.00
2018-04-14T00:15:05.578Z,0.00
2018-04-14T00:16:05.596Z,0.00
2018-04-14T00:17:05.643Z,0.00
2018-04-14T00:18:05.667Z,0.00
2018-04-14T00:19:06.048Z,0.00
2018-04-14T00:20:05.778Z,0.00
2018-04-14T00:21:05.756Z,0.00
2018-04-14T00:22:05.784Z,0.00
2018-04-14T00:23:05.843Z,0.00
2018-04-14T00:24:05.844Z,0.00
2018-04-14T00:25:05.878Z,0.00
2018-04-14T00:26:06.233Z,0.00
2018-04-14T00:27:05.958Z,0.00
2018-04-14T00:28:05.984Z,0.00
2018-04-14T00:29:06.006Z,0.00
2018-04-14T00:30:06.038Z,0.00
2018-04-14T00:31:06.120Z,0.00
2018-04-14T00:32:06.134Z,0.00
2018-04-14T00:33:06.428Z,0.00
2018-04-14T00:34:06.171Z,0.00
2018-04-14T00:35:06.201Z,0.00
2018-04-14T00:36:06.285Z,0.00
2018-04-14T00:37:06.257Z,0.00
2018-04-14T00:38:06.314Z,0.00
2018-04-14T00:39:06.320Z,0.00
2018-04-14T00:40:06.592Z,0.00
2018-04-14T00:41:06.420Z,0.00
2018-04-14T00:42:06.442Z,0.00
2018-04-14T00:43:06.439Z,0.00
2018-04-14T00:44:06.621Z,0.00
2018-04-14T00:45:06.549Z,0.00
2018-04-14T00:46:06.529Z,0.00
2018-04-14T00:47:06.882Z,0.00
2018-04-14T00:48:06.595Z,0.00
2018-04-14T00:49:06.625Z,0.00
2018-04-14T00:50:06.678Z,0.00
2018-04-14T00:51:06.689Z,0.00
2018-04-14T00:52:06.716Z,0.00
2018-04-14T00:53:06.771Z,0.00
2018-04-14T00:54:07.027Z,0.00
2018-04-14T00:55:06.811Z,0.00
2018-04-14T00:56:06.846Z,0.00
2018-04-14T00:57:06.870Z,0.00
2018-04-14T00:58:06.912Z,0.00
2018-04-14T00:59:06.956Z,0.00
2018-04-14T01:00:06.971Z,0.00
2018-04-14T01:01:07.265Z,0.00
2018-04-14T01:02:07.041Z,0.00
2018-04-14T01:03:07.075Z,0.00
2018-04-14T01:04:07.090Z,0.00
2018-04-14T01:05:07.136Z,0.00
2018-04-14T01:06:07.150Z,0.00
2018-04-14T01:07:07.434Z,0.00
2018-04-14T01:08:07.213Z,0.00
2018-04-14T01:09:07.246Z,0.00
2018-04-14T01:10:07.273Z,0.00
2018-04-14T01:11:07.323Z,0.00
2018-04-14T01:12:07.343Z,0.00
2018-04-14T01:13:07.630Z,0.00
2018-04-14T01:14:07.400Z,0.00
2018-04-14T01:15:07.435Z,0.00
2018-04-14T01:16:07.468Z,0.00
2018-04-14T01:17:07.497Z,0.00
2018-04-14T01:18:07.532Z,0.00
2018-04-14T01:19:07.806Z,0.00
2018-04-14T01:20:07.588Z,0.00
2018-04-14T01:21:07.817Z,0.00
2018-04-14T01:22:07.653Z,0.00
2018-04-14T01:23:07.683Z,0.00
2018-04-14T01:24:07.748Z,0.00
2018-04-14T01:25:07.993Z,0.00
2018-04-14T01:26:07.772Z,0.00
2018-04-14T01:27:07.813Z,0.00
2018-04-14T01:28:07.839Z,0.00
2018-04-14T01:29:07.870Z,0.00
2018-04-14T01:30:07.897Z,0.00
2018-04-14T01:31:08.187Z,0.00
2018-04-14T01:32:07.969Z,0.00
2018-04-14T01:33:07.991Z,0.00
2018-04-14T01:34:08.020Z,0.00
2018-04-14T01:35:08.055Z,0.00
2018-04-14T01:36:08.096Z,0.00
2018-04-14T01:37:08.416Z,0.00
2018-04-14T01:38:08.173Z,0.00
2018-04-14T01:39:08.184Z,0.00
2018-04-14T01:40:08.225Z,0.00
2018-04-14T01:41:08.254Z,0.00
2018-04-14T01:42:08.276Z,0.00
2018-04-14T01:43:08.554Z,0.00
2018-04-14T01:44:08.342Z,0.00
2018-04-14T01:45:08.364Z,0.00
2018-04-14T01:46:08.392Z,0.00
2018-04-14T01:47:08.427Z,0.00
2018-04-14T01:48:08.465Z,0.00
2018-04-14T01:49:08.737Z,0.00
2018-04-14T01:50:08.522Z,0.00
2018-04-14T01:51:08.551Z,0.00
2018-04-14T01:52:08.593Z,0.00
2018-04-14T01:53:08.617Z,0.00
2018-04-14T01:54:08.650Z,0.00
2018-04-14T01:55:08.970Z,0.00
2018-04-14T01:56:08.707Z,0.00
2018-04-14T01:57:08.736Z,0.00
2018-04-14T01:58:08.815Z,0.00
2018-04-14T01:59:08.821Z,0.00
2018-04-14T02:00:08.832Z,0.00
2018-04-14T02:01:09.107Z,0.00
2018-04-14T02:02:08.894Z,0.00
2018-04-14T02:03:08.919Z,0.00
2018-04-14T02:04:08.949Z,0.00
2018-04-14T02:05:08.982Z,0.00
2018-04-14T02:06:09.028Z,0.00
2018-04-14T02:07:09.345Z,0.00
2018-04-14T02:08:09.078Z,0.00
2018-04-14T02:09:09.104Z,0.00
2018-04-14T02:10:09.133Z,0.00
2018-04-14T02:11:09.173Z,0.00
2018-04-14T02:12:09.204Z,0.00
2018-04-14T02:13:09.476Z,0.00
2018-04-14T02:14:09.258Z,0.00
2018-04-14T02:15:09.291Z,0.00
2018-04-14T02:16:09.328Z,0.00
2018-04-14T02:17:09.366Z,0.00
2018-04-14T02:18:09.427Z,0.00
2018-04-14T02:19:09.415Z,0.00
2018-04-14T02:20:09.743Z,0.00
2018-04-14T02:21:09.480Z,0.00
2018-04-14T02:22:09.516Z,0.00
2018-04-14T02:23:09.540Z,0.00
2018-04-14T02:24:09.650Z,0.00
2018-04-14T02:25:09.604Z,0.00
2018-04-14T02:26:09.638Z,0.00
2018-04-14T02:27:09.970Z,0.00
2018-04-14T02:28:09.702Z,0.00
2018-04-14T02:29:09.743Z,0.00
2018-04-14T02:30:09.762Z,0.00
2018-04-14T02:31:09.789Z,0.00
2018-04-14T02:32:09.821Z,0.00
2018-04-14T02:33:09.871Z,0.00
2018-04-14T02:34:10.189Z,0.00
2018-04-14T02:35:09.909Z,0.00
2018-04-14T02:36:09.940Z,0.00
2018-04-14T02:37:09.967Z,0.00
2018-04-14T02:38:10.003Z,0.00
2018-04-14T02:39:10.030Z,0.00
2018-04-14T02:40:10.068Z,0.00
2018-04-14T02:41:10.355Z,0.00
2018-04-14T02:42:10.144Z,0.00
2018-04-14T02:43:10.162Z,0.00
2018-04-14T02:44:10.186Z,0.00
2018-04-14T02:45:10.229Z,0.00
2018-04-14T02:46:10.247Z,0.00
2018-04-14T02:47:10.281Z,0.00
2018-04-14T02:48:10.560Z,0.00
2018-04-14T02:49:10.342Z,0.00
2018-04-14T02:50:10.372Z,0.00
2018-04-14T02:51:10.413Z,0.00
2018-04-14T02:52:10.446Z,0.00
2018-04-14T02:53:10.463Z,0.00
2018-04-14T02:54:10.492Z,0.00
2018-04-14T02:55:10.826Z,0.00
2018-04-14T02:56:10.617Z,0.00
2018-04-14T02:57:10.591Z,0.00
2018-04-14T02:58:10.615Z,0.00
2018-04-14T02:59:10.652Z,0.00
2018-04-14T03:00:10.682Z,0.00
2018-04-14T03:01:10.709Z,0.00
2018-04-14T03:02:10.991Z,0.00
2018-04-14T03:03:10.823Z,0.00
2018-04-14T03:04:10.803Z,0.00
2018-04-14T03:05:10.836Z,0.00
2018-04-14T03:06:10.865Z,0.00
2018-04-14T03:07:10.960Z,0.00
2018-04-14T03:08:10.982Z,0.00
2018-04-14T03:09:11.209Z,0.00
2018-04-14T03:10:10.983Z,0.00
2018-04-14T03:11:11.024Z,0.00
2018-04-14T03:12:11.071Z,0.00
2018-04-14T03:13:11.085Z,0.00
2018-04-14T03:14:11.111Z,0.00
2018-04-14T03:15:11.151Z,0.00
2018-04-14T03:16:11.422Z,0.00
2018-04-14T03:17:11.217Z,0.00
2018-04-14T03:18:11.231Z,0.00
2018-04-14T03:20:11.299Z,0.00
2018-04-14T03:21:11.382Z,0.00
2018-04-14T03:22:11.355Z,0.00
2018-04-14T03:23:11.685Z,0.00
2018-04-14T03:24:11.416Z,0.00
2018-04-14T03:25:11.458Z,0.00
2018-04-14T03:26:11.502Z,0.00
2018-04-14T03:27:11.542Z,0.00
2018-04-14T03:28:11.537Z,0.00
2018-04-14T03:29:11.577Z,0.00
2018-04-14T03:30:11.851Z,0.00
2018-04-14T03:31:11.639Z,0.00
2018-04-14T03:32:11.660Z,0.00
2018-04-14T03:33:11.800Z,0.00
2018-04-14T03:34:11.775Z,0.00
2018-04-14T03:35:11.761Z,0.00
2018-04-14T03:36:12.035Z,0.00
2018-04-14T03:37:11.813Z,0.00
2018-04-14T03:38:11.848Z,0.00
2018-04-14T03:39:11.876Z,0.00
2018-04-14T03:40:11.914Z,0.00
2018-04-14T03:41:11.936Z,0.00
2018-04-14T03:42:12.270Z,0.00
2018-04-14T03:43:12.073Z,0.00
2018-04-14T03:44:12.032Z,0.00
2018-04-14T03:45:12.059Z,0.00
2018-04-14T03:46:12.099Z,0.00
2018-04-14T03:47:12.124Z,0.00
2018-04-14T03:48:12.411Z,0.00
2018-04-14T03:49:12.186Z,0.00
2018-04-14T03:50:12.302Z,0.00
2018-04-14T03:51:12.304Z,0.00
2018-04-14T03:52:12.276Z,0.00
2018-04-14T03:53:12.327Z,0.00
2018-04-14T03:54:12.635Z,0.00
2018-04-14T03:55:12.504Z,0.00
2018-04-14T03:56:12.397Z,0.00
2018-04-14T03:57:12.432Z,0.00
2018-04-14T03:58:12.468Z,0.00
2018-04-14T03:59:12.505Z,0.00
2018-04-14T04:00:12.776Z,0.00
2018-04-14T04:01:12.549Z,0.00
2018-04-14T04:02:12.598Z,0.00
2018-04-14T04:03:12.674Z,0.00
2018-04-14T04:04:12.643Z,0.00
2018-04-14T04:05:12.676Z,0.00
2018-04-14T04:06:12.976Z,0.00
2018-04-14T04:07:12.739Z,0.00
2018-04-14T04:08:12.841Z,0.00
2018-04-14T04:09:12.802Z,0.00
2018-04-14T04:10:12.878Z,0.00
2018-04-14T04:11:12.863Z,0.00
2018-04-14T04:12:13.235Z,0.00
2018-04-14T04:13:12.920Z,0.00
2018-04-14T04:14:12.951Z,0.00
2018-04-14T04:15:12.985Z,0.00
2018-04-14T04:16:13.017Z,0.00
2018-04-14T04:17:13.041Z,4.00
2018-04-14T04:18:13.426Z,4.00
2018-04-14T04:19:13.109Z,4.00
2018-04-14T04:20:13.190Z,4.00
2018-04-14T04:21:13.213Z,0.00
2018-04-14T04:22:13.198Z,4.00
2018-04-14T04:23:13.237Z,4.00
2018-04-14T04:24:13.602Z,8.00
2018-04-14T04:25:13.293Z,4.00
2018-04-14T04:26:13.325Z,4.00
2018-04-14T04:27:13.371Z,8.00
2018-04-14T04:28:13.404Z,8.00
2018-04-14T04:29:13.416Z,12.00
2018-04-14T04:30:13.711Z,12.00
2018-04-14T04:31:13.781Z,16.00
2018-04-14T04:32:13.506Z,16.00
2018-04-14T04:33:13.576Z,20.00
2018-04-14T04:34:13.574Z,20.00
2018-04-14T04:35:13.637Z,20.00
2018-04-14T04:36:13.884Z,20.00
2018-04-14T04:37:13.713Z,24.00
2018-04-14T04:38:13.756Z,28.00
2018-04-14T04:39:13.765Z,32.00
2018-04-14T04:40:13.755Z,36.00
2018-04-14T04:41:13.785Z,40.00
2018-04-14T04:42:14.078Z,44.00
2018-04-14T04:43:13.945Z,48.00
2018-04-14T04:44:13.884Z,52.00
2018-04-14T04:45:13.904Z,60.00
2018-04-14T04:46:13.940Z,64.00
2018-04-14T04:47:13.981Z,72.00
2018-04-14T04:48:14.314Z,84.00
2018-04-14T04:49:14.083Z,96.00
2018-04-14T04:50:14.106Z,108.00
2018-04-14T04:51:14.094Z,124.00
2018-04-14T04:52:14.119Z,136.00
2018-04-14T04:53:14.160Z,144.00
2018-04-14T04:54:14.201Z,160.00
2018-04-14T04:55:14.458Z,176.00
2018-04-14T04:56:14.371Z,192.00
2018-04-14T04:57:14.274Z,208.00
2018-04-14T04:58:14.311Z,220.00
2018-04-14T04:59:14.353Z,240.00
2018-04-14T05:00:14.380Z,256.00
2018-04-14T05:01:14.406Z,272.00
2018-04-14T05:02:14.682Z,280.00
2018-04-14T05:03:14.462Z,296.00
2018-04-14T05:04:14.489Z,308.00
2018-04-14T05:05:14.524Z,328.00
2018-04-14T05:06:14.553Z,340.00
2018-04-14T05:07:14.616Z,344.00
2018-04-14T05:08:14.659Z,364.00
2018-04-14T05:09:14.956Z,388.00
2018-04-14T05:10:14.742Z,412.00
2018-04-14T05:11:14.730Z,432.00
2018-04-14T05:12:14.889Z,444.00
2018-04-14T05:13:15.012Z,460.00
2018-04-14T05:14:15.612Z,472.00
2018-04-14T05:16:15.106Z,484.00
2018-04-14T05:17:14.925Z,504.00
2018-04-14T05:18:14.922Z,512.00
2018-04-14T05:19:14.946Z,516.00
2018-04-14T05:20:14.973Z,540.00
2018-04-14T05:21:15.054Z,564.00
2018-04-14T05:22:15.228Z,580.00
2018-04-14T05:23:15.424Z,596.00
2018-04-14T05:24:15.234Z,612.00
2018-04-14T05:25:15.173Z,624.00
2018-04-14T05:26:15.184Z,620.00
2018-04-14T05:27:15.223Z,636.00
2018-04-14T05:28:15.247Z,656.00
2018-04-14T05:29:15.324Z,668.00
2018-04-14T05:30:15.533Z,684.00
2018-04-14T05:31:15.323Z,708.00
2018-04-14T05:32:15.387Z,716.00
2018-04-14T05:33:15.422Z,716.00
2018-04-14T05:34:15.447Z,716.00
2018-04-14T05:35:15.509Z,736.00
2018-04-14T05:36:15.505Z,764.00
2018-04-14T05:37:15.836Z,796.00
2018-04-14T05:38:15.588Z,820.00
2018-04-14T05:39:15.561Z,836.00
2018-04-14T05:40:15.599Z,860.00
2018-04-14T05:41:15.655Z,884.00
2018-04-14T05:42:15.701Z,920.00
2018-04-14T05:43:15.692Z,960.00
2018-04-14T05:44:16.023Z,1016.00
2018-04-14T05:45:15.742Z,1092.00
2018-04-14T05:46:15.773Z,1184.00
2018-04-14T05:47:15.803Z,1272.00
2018-04-14T05:48:15.846Z,1260.00
2018-04-14T05:49:15.976Z,1260.00
2018-04-14T05:50:16.082Z,1300.00
2018-04-14T05:51:16.233Z,1252.00
2018-04-14T05:52:15.980Z,1172.00
2018-04-14T05:53:16.529Z,1176.00
2018-04-14T05:54:16.096Z,1204.00
2018-04-14T05:55:16.108Z,1236.00
2018-04-14T05:56:16.219Z,1288.00
2018-04-14T05:57:16.131Z,1300.00
2018-04-14T05:58:16.471Z,1352.00
2018-04-14T05:59:16.185Z,1444.00
2018-04-14T06:00:16.220Z,1464.00
2018-04-14T06:01:16.243Z,1380.00
2018-04-14T06:02:16.277Z,1336.00
2018-04-14T06:03:16.300Z,1344.00
2018-04-14T06:04:16.334Z,1360.00
2018-04-14T06:05:16.664Z,1420.00
2018-04-14T06:06:16.399Z,1464.00
2018-04-14T06:07:16.425Z,1456.00
2018-04-14T06:08:16.453Z,1396.00
2018-04-14T06:09:16.532Z,1428.00
2018-04-14T06:10:16.516Z,1568.00
2018-04-14T06:11:16.800Z,1644.00
2018-04-14T06:12:16.603Z,1612.00
2018-04-14T06:13:16.609Z,1600.00
2018-04-14T06:14:16.635Z,1592.00
2018-04-14T06:15:16.670Z,1548.00
2018-04-14T06:16:16.753Z,1496.00
2018-04-14T06:17:17.044Z,1488.00
2018-04-14T06:18:16.794Z,1508.00
2018-04-14T06:19:16.799Z,1532.00
2018-04-14T06:20:16.846Z,1528.00
2018-04-14T06:21:16.854Z,1564.00
2018-04-14T06:22:16.967Z,1612.00
2018-04-14T06:23:17.221Z,1672.00
2018-04-14T06:24:16.967Z,1740.00
2018-04-14T06:25:16.981Z,1796.00
2018-04-14T06:26:17.005Z,1892.00
2018-04-14T06:27:17.039Z,1976.00
2018-04-14T06:28:17.107Z,1972.00
2018-04-14T06:29:17.351Z,1916.00
2018-04-14T06:30:17.137Z,1852.00
2018-04-14T06:31:17.166Z,1828.00
2018-04-14T06:32:17.193Z,1900.00
2018-04-14T06:33:17.232Z,2004.00
2018-04-14T06:34:17.310Z,2172.00
2018-04-14T06:35:17.589Z,2324.00
2018-04-14T06:36:17.325Z,2384.00
2018-04-14T06:37:17.356Z,2380.00
2018-04-14T06:38:17.386Z,2384.00
2018-04-14T06:39:17.410Z,2308.00
2018-04-14T06:40:17.440Z,2212.00
2018-04-14T06:41:17.769Z,2060.00
2018-04-14T06:42:17.503Z,2032.00
2018-04-14T06:43:17.532Z,2032.00
2018-04-14T06:44:17.570Z,2056.00
2018-04-14T06:45:17.642Z,2052.00
2018-04-14T06:46:17.627Z,2016.00
2018-04-14T06:47:17.908Z,2132.00
2018-04-14T06:48:17.702Z,2312.00
2018-04-14T06:49:17.731Z,2732.00
2018-04-14T06:50:17.755Z,3136.00
2018-04-14T06:51:17.785Z,3124.00
2018-04-14T06:52:17.811Z,2740.00
2018-04-14T06:53:18.151Z,2488.00
2018-04-14T06:54:17.883Z,2676.00
2018-04-14T06:55:17.907Z,3048.00
2018-04-14T06:56:17.940Z,3200.00
2018-04-14T06:57:17.971Z,3404.00
2018-04-14T06:58:18.027Z,3404.00
2018-04-14T06:59:18.280Z,3036.00
2018-04-14T07:00:18.125Z,2728.00
2018-04-14T07:01:18.112Z,2460.00
2018-04-14T07:02:18.127Z,2324.00
2018-04-14T07:03:18.159Z,2300.00
2018-04-14T07:04:18.198Z,2236.00
2018-04-14T07:05:18.471Z,2212.00
2018-04-14T07:06:18.264Z,2324.00
2018-04-14T07:07:18.281Z,2468.00
2018-04-14T07:08:18.318Z,2568.00
2018-04-14T07:09:18.354Z,2696.00
2018-04-14T07:10:18.384Z,2852.00
2018-04-14T07:11:18.770Z,3060.00
2018-04-14T07:12:18.438Z,3220.00
2018-04-14T07:13:18.475Z,3176.00
2018-04-14T07:14:18.499Z,3052.00
2018-04-14T07:15:18.541Z,3060.00
2018-04-14T07:16:18.558Z,3020.00
2018-04-14T07:17:18.843Z,2752.00
2018-04-14T07:18:18.628Z,2552.00
2018-04-14T07:19:18.658Z,2552.00
2018-04-14T07:20:18.702Z,2532.00
2018-04-14T07:21:18.717Z,2476.00
2018-04-14T07:22:18.773Z,2432.00
2018-04-14T07:23:18.788Z,2440.00
2018-04-14T07:24:19.066Z,2428.00
2018-04-14T07:25:18.849Z,2380.00
2018-04-14T07:26:18.912Z,2312.00
2018-04-14T07:27:19.118Z,2304.00
2018-04-14T07:28:18.943Z,2328.00
2018-04-14T07:29:18.976Z,2368.00
2018-04-14T07:30:19.001Z,2428.00
2018-04-14T07:31:19.438Z,2476.00
2018-04-14T07:32:19.097Z,2476.00
2018-04-14T07:33:19.089Z,2468.00
2018-04-14T07:34:19.123Z,2488.00
2018-04-14T07:35:19.157Z,2536.00
2018-04-14T07:36:19.194Z,2604.00
2018-04-14T07:37:19.216Z,2696.00
2018-04-14T07:38:19.504Z,2796.00
2018-04-14T07:39:19.280Z,2788.00
2018-04-14T07:40:19.370Z,2624.00
2018-04-14T07:41:19.343Z,2504.00
2018-04-14T07:42:19.475Z,2480.00
2018-04-14T07:43:19.404Z,2472.00
2018-04-14T07:44:19.439Z,2436.00
2018-04-14T07:45:19.725Z,2420.00
2018-04-14T07:46:19.500Z,2424.00
2018-04-14T07:47:19.532Z,2444.00
2018-04-14T07:48:19.563Z,2444.00
2018-04-14T07:49:19.595Z,2456.00
2018-04-14T07:50:19.660Z,2464.00
2018-04-14T07:51:19.656Z,2476.00
2018-04-14T07:52:19.939Z,2504.00
2018-04-14T07:53:19.718Z,2508.00
2018-04-14T07:54:19.750Z,2508.00
2018-04-14T07:55:19.784Z,2532.00
2018-04-14T07:56:19.819Z,2592.00
2018-04-14T07:57:19.850Z,2656.00
2018-04-14T07:58:19.926Z,2712.00
2018-04-14T07:59:20.162Z,2748.00
2018-04-14T08:00:19.951Z,2784.00
2018-04-14T08:01:19.972Z,2808.00
2018-04-14T08:02:20.002Z,2804.00
2018-04-14T08:03:20.056Z,2812.00
2018-04-14T08:04:20.078Z,2788.00
2018-04-14T08:05:20.101Z,2752.00
2018-04-14T08:06:20.378Z,2736.00
2018-04-14T08:07:20.167Z,2716.00
2018-04-14T08:08:20.192Z,2696.00
2018-04-14T08:09:20.224Z,2680.00
2018-04-14T08:10:20.258Z,2708.00
2018-04-14T08:11:20.291Z,2736.00
2018-04-14T08:12:20.318Z,2748.00
2018-04-14T08:13:20.600Z,2768.00
2018-04-14T08:14:20.431Z,2784.00
2018-04-14T08:15:20.425Z,2784.00
2018-04-14T08:16:20.446Z,2780.00
2018-04-14T08:17:20.488Z,2796.00
2018-04-14T08:18:20.537Z,2824.00
2018-04-14T08:19:20.562Z,2872.00
2018-04-14T08:20:20.874Z,2872.00
2018-04-14T08:21:20.609Z,2876.00
2018-04-14T08:22:20.643Z,2880.00
2018-04-14T08:23:20.676Z,2892.00
2018-04-14T08:24:20.699Z,2924.00
2018-04-14T08:25:20.731Z,2964.00
2018-04-14T08:26:20.759Z,3008.00
2018-04-14T08:27:21.044Z,3060.00
2018-04-14T08:28:20.827Z,3100.00
2018-04-14T08:29:20.859Z,3172.00
2018-04-14T08:30:20.898Z,3220.00
2018-04-14T08:31:20.920Z,3240.00
2018-04-14T08:32:20.955Z,3312.00
2018-04-14T08:33:20.999Z,3392.00
2018-04-14T08:34:21.272Z,3508.00
2018-04-14T08:35:21.044Z,3732.00
2018-04-14T08:36:21.080Z,4032.00
2018-04-14T08:37:21.132Z,4348.00
2018-04-14T08:38:21.141Z,4448.00
2018-04-14T08:39:21.172Z,4328.00
2018-04-14T08:40:21.205Z,4140.00
2018-04-14T08:41:21.499Z,4444.00
2018-04-14T08:42:21.282Z,4800.00
2018-04-14T08:43:21.296Z,4680.00
2018-04-14T08:44:21.337Z,4736.00
2018-04-14T08:45:21.359Z,4944.00
2018-04-14T08:46:21.392Z,5008.00
2018-04-14T08:47:21.722Z,4924.00
2018-04-14T08:48:21.759Z,4720.00
2018-04-14T08:49:21.487Z,4520.00
2018-04-14T08:50:21.522Z,4560.00
2018-04-14T08:51:21.618Z,4804.00
2018-04-14T08:52:21.592Z,4956.00
2018-04-14T08:53:21.865Z,5100.00
2018-04-14T08:54:21.655Z,5032.00
2018-04-14T08:55:21.682Z,5128.00
2018-04-14T08:56:21.765Z,5212.00
2018-04-14T08:57:21.771Z,5180.00
2018-04-14T08:58:21.776Z,4992.00
2018-04-14T08:59:22.120Z,4864.00
2018-04-14T09:00:21.840Z,4824.00
2018-04-14T09:01:21.871Z,4948.00
2018-04-14T09:02:21.901Z,5064.00
2018-04-14T09:03:21.933Z,5264.00
2018-04-14T09:04:21.976Z,5544.00
2018-04-14T09:05:22.254Z,5716.00
2018-04-14T09:06:22.034Z,5860.00
2018-04-14T09:07:22.064Z,6004.00
2018-04-14T09:08:22.105Z,6296.00
2018-04-14T09:09:22.137Z,6460.00
2018-04-14T09:10:22.167Z,6408.00
2018-04-14T09:11:22.446Z,6104.00
2018-04-14T09:12:22.227Z,6164.00
2018-04-14T09:13:22.264Z,5764.00
2018-04-14T09:14:22.296Z,6008.00
2018-04-14T09:15:22.373Z,5920.00
2018-04-14T09:16:22.449Z,6260.00
2018-04-14T09:17:22.639Z,5956.00
2018-04-14T09:18:22.422Z,5796.00
2018-04-14T09:19:22.453Z,5848.00
2018-04-14T09:20:22.492Z,5200.00
2018-04-14T09:21:22.550Z,4396.00
2018-04-14T09:22:22.555Z,4400.00
2018-04-14T09:23:22.838Z,5088.00
2018-04-14T09:24:22.622Z,5852.00
2018-04-14T09:25:22.665Z,6368.00
2018-04-14T09:26:22.767Z,6420.00
2018-04-14T09:27:22.730Z,5740.00
2018-04-14T09:28:22.762Z,4936.00
2018-04-14T09:29:23.112Z,5228.00
2018-04-14T09:30:22.828Z,4672.00
2018-04-14T09:31:22.881Z,4812.00
2018-04-14T09:32:22.930Z,4904.00
2018-04-14T09:33:22.911Z,4988.00
2018-04-14T09:34:23.003Z,4572.00
2018-04-14T09:35:23.277Z,4428.00
2018-04-14T09:36:23.012Z,4036.00
2018-04-14T09:37:23.062Z,3864.00
2018-04-14T09:38:23.080Z,4464.00
2018-04-14T09:39:23.120Z,5332.00
2018-04-14T09:40:23.195Z,4548.00
2018-04-14T09:41:23.475Z,3748.00
2018-04-14T09:42:23.207Z,3800.00
2018-04-14T09:43:23.247Z,3944.00
2018-04-14T09:44:23.280Z,4148.00
2018-04-14T09:45:23.351Z,4460.00
2018-04-14T09:46:23.353Z,4892.00
2018-04-14T09:47:23.690Z,5148.00
2018-04-14T09:48:23.443Z,5540.00
2018-04-14T09:49:23.450Z,5828.00
2018-04-14T09:50:23.469Z,5996.00
2018-04-14T09:51:23.504Z,6144.00
2018-04-14T09:52:23.548Z,6396.00
2018-04-14T09:53:23.942Z,6776.00
2018-04-14T09:54:23.608Z,6980.00
2018-04-14T09:55:23.639Z,7172.00
2018-04-14T09:56:23.759Z,7272.00
2018-04-14T09:57:23.714Z,7400.00
2018-04-14T09:58:23.731Z,7508.00
2018-04-14T09:59:24.018Z,7644.00
2018-04-14T10:00:23.806Z,7648.00
2018-04-14T10:01:23.837Z,7384.00
2018-04-14T10:02:23.864Z,7220.00
2018-04-14T10:03:23.903Z,6904.00
2018-04-14T10:04:23.935Z,7224.00
2018-04-14T10:05:23.965Z,7456.00
2018-04-14T10:06:24.345Z,7444.00
2018-04-14T10:07:24.028Z,7388.00
2018-04-14T10:08:24.070Z,7360.00
2018-04-14T10:09:24.118Z,7340.00
2018-04-14T10:10:24.146Z,7308.00
2018-04-14T10:11:24.174Z,7224.00
2018-04-14T10:12:24.224Z,7272.00
2018-04-14T10:13:24.536Z,7180.00
2018-04-14T10:14:24.266Z,6992.00
2018-04-14T10:15:24.337Z,6780.00
2018-04-14T10:16:24.335Z,6644.00
2018-04-14T10:17:24.381Z,6316.00
2018-04-14T10:18:24.394Z,5812.00
2018-04-14T10:19:24.476Z,5116.00
2018-04-14T10:20:24.763Z,4472.00
2018-04-14T10:21:24.500Z,4240.00
2018-04-14T10:22:24.531Z,4248.00
2018-04-14T10:23:24.579Z,4480.00
2018-04-14T10:24:24.607Z,5276.00
2018-04-14T10:25:24.629Z,5924.00
2018-04-14T10:26:24.765Z,6196.00
2018-04-14T10:27:24.940Z,6208.00
2018-04-14T10:28:24.732Z,6196.00
2018-04-14T10:29:24.844Z,6224.00
2018-04-14T10:30:24.799Z,6108.00
2018-04-14T10:31:24.882Z,6008.00
2018-04-14T10:32:24.928Z,5876.00
2018-04-14T10:33:24.895Z,5856.00
2018-04-14T10:34:25.265Z,5856.00
2018-04-14T10:35:25.068Z,5900.00
2018-04-14T10:36:24.989Z,5876.00
2018-04-14T10:37:25.020Z,5828.00
2018-04-14T10:38:25.062Z,5680.00
2018-04-14T10:39:25.090Z,5264.00
2018-04-14T10:40:25.130Z,5220.00
2018-04-14T10:41:25.408Z,5148.00
2018-04-14T10:42:25.200Z,4896.00
2018-04-14T10:43:25.221Z,5008.00
2018-04-14T10:44:25.275Z,5048.00
2018-04-14T10:45:25.336Z,5100.00
2018-04-14T10:46:25.346Z,5092.00
2018-04-14T10:47:25.390Z,5032.00
2018-04-14T10:48:25.393Z,4956.00
2018-04-14T10:49:25.419Z,4876.00
2018-04-14T10:50:25.461Z,4772.00
2018-04-14T10:51:25.489Z,4676.00
2018-04-14T10:52:25.520Z,4708.00
2018-04-14T10:53:25.557Z,4836.00
2018-04-14T10:54:25.890Z,4952.00
2018-04-14T10:55:25.620Z,4996.00
2018-04-14T10:56:25.665Z,5020.00
2018-04-14T10:57:25.690Z,5004.00
2018-04-14T10:58:25.720Z,4988.00
2018-04-14T10:59:25.778Z,4976.00
2018-04-14T11:00:25.810Z,4996.00
2018-04-14T11:01:26.086Z,4988.00
2018-04-14T11:02:25.860Z,4984.00
2018-04-14T11:03:25.911Z,4960.00
2018-04-14T11:04:25.937Z,4940.00
2018-04-14T11:05:25.999Z,4876.00
2018-04-14T11:06:26.013Z,4808.00
2018-04-14T11:07:26.019Z,4792.00
2018-04-14T11:08:26.368Z,4788.00
2018-04-14T11:09:26.095Z,4760.00
2018-04-14T11:10:26.122Z,4756.00
2018-04-14T11:11:26.170Z,4752.00
2018-04-14T11:12:26.196Z,4652.00
2018-04-14T11:13:26.289Z,4680.00
2018-04-14T11:14:26.259Z,4620.00
2018-04-14T11:15:26.555Z,4704.00
2018-04-14T11:16:26.479Z,4672.00
2018-04-14T11:17:26.354Z,4632.00
2018-04-14T11:18:26.387Z,4596.00
2018-04-14T11:19:26.424Z,4596.00
2018-04-14T11:20:26.467Z,4600.00
2018-04-14T11:21:26.489Z,4596.00
2018-04-14T11:22:26.776Z,4596.00
2018-04-14T11:23:26.560Z,4612.00
2018-04-14T11:24:27.040Z,4668.00
2018-04-14T11:25:26.630Z,4696.00
2018-04-14T11:26:26.658Z,4728.00
2018-04-14T11:27:26.734Z,4776.00
2018-04-14T11:28:27.027Z,4820.00
2018-04-14T11:29:26.771Z,4836.00
2018-04-14T11:30:26.800Z,4852.00
2018-04-14T11:31:26.856Z,4820.00
2018-04-14T11:32:26.888Z,4824.00
2018-04-14T11:33:26.883Z,4768.00
2018-04-14T11:34:27.181Z,4724.00
2018-04-14T11:35:26.955Z,4616.00
2018-04-14T11:36:26.993Z,4508.00
2018-04-14T11:37:27.019Z,4544.00
2018-04-14T11:38:27.051Z,4796.00
2018-04-14T11:39:27.086Z,4980.00
2018-04-14T11:40:27.430Z,5080.00
2018-04-14T11:41:27.191Z,5224.00
2018-04-14T11:42:27.215Z,5356.00
2018-04-14T11:43:27.278Z,5444.00
2018-04-14T11:44:27.244Z,5480.00
2018-04-14T11:45:27.278Z,5504.00
2018-04-14T11:46:27.570Z,5620.00
2018-04-14T11:47:27.345Z,5800.00
2018-04-14T11:48:27.388Z,6024.00
2018-04-14T11:49:27.410Z,6288.00
2018-04-14T11:50:27.446Z,6528.00
2018-04-14T11:51:27.500Z,6736.00
2018-04-14T11:52:27.787Z,6892.00
2018-04-14T11:53:27.556Z,6864.00
2018-04-14T11:54:27.605Z,7048.00
2018-04-14T11:55:27.615Z,6764.00
2018-04-14T11:56:27.653Z,6404.00
2018-04-14T11:57:27.681Z,6056.00
2018-04-14T11:58:28.018Z,5788.00
2018-04-14T11:59:27.750Z,6948.00
2018-04-14T12:00:27.912Z,8124.00
2018-04-14T12:01:27.836Z,8292.00
2018-04-14T12:02:27.890Z,7912.00
2018-04-14T12:03:27.891Z,7480.00
2018-04-14T12:04:28.265Z,7192.00
2018-04-14T12:05:28.051Z,7048.00
2018-04-14T13:08:29.710Z,19976.00
2018-04-14T13:09:29.382Z,18280.00
2018-04-14T13:10:29.476Z,13016.00
2018-04-14T13:11:29.453Z,13032.00
2018-04-14T13:12:29.460Z,13256.00
2018-04-14T13:13:29.507Z,15800.00
2018-04-14T13:14:29.877Z,13384.00
2018-04-14T13:15:29.644Z,20416.00
2018-04-14T13:16:29.622Z,23232.00
2018-04-14T13:17:29.679Z,23264.00
2018-04-14T13:18:30.219Z,23200.00
2018-04-14T13:19:29.777Z,23584.00
2018-04-14T13:20:30.250Z,24192.00
2018-04-14T13:21:29.811Z,23552.00
2018-04-14T13:22:29.838Z,23936.00
2018-04-14T13:23:29.914Z,24512.00
2018-04-14T13:24:30.017Z,25312.00
2018-04-14T13:25:30.126Z,26048.00
2018-04-14T13:26:30.346Z,24896.00
2018-04-14T13:27:30.111Z,26016.00
2018-04-14T13:28:30.263Z,25376.00
2018-04-14T13:29:30.129Z,25120.00
2018-04-14T13:30:30.132Z,24864.00
2018-04-14T13:31:30.335Z,24800.00
2018-04-14T13:32:30.547Z,23424.00
2018-04-14T13:33:30.279Z,21248.00
2018-04-14T13:34:30.275Z,17764.00
2018-04-14T13:35:30.297Z,18956.00
2018-04-14T13:36:30.359Z,16284.00